Terminal Aerodrome Forecast
Issued by NWS Rapid City, SD

Home | Current Version | Previous Version | Text Only | Print | Product List | Glossary Off
Versions: 1 2 3 4 5 6 7 8 9 10 11 12 13 14 15 16 17 18 19 20 21 22 23 24 25 26 27 28 29 30 31 32

696
FTUS43 KUNR 140004 AAA
TAFRAP
TAF AMD
KRAP 140004Z 1400/1424 33030G48KT P6SM -SHRA BKN050
      TEMPO 1400/1402 2SM SHRASN SCT015 BKN025
     FM140500 33018G28KT P6SM SCT120
     FM141000 32010KT P6SM SCT120
     FM141700 33015G25KT P6SM BKN040=

USA.gov is the U.S. government's official web portal to all federal, state and local government web resources and services.